Overview Statistics Trail Chart Weather Telemetry Raw packets
 

This is the latest recevied weather packets stored in our database for station/object SV4JYD-14. If no packets are shown the sender has not sent any weather packets the latest 10 day(s).

<< 31 32 33 34 35 36 37 >>
Time Temp. Humidity Pressure Rain* Wind** Luminosity Snow
1777283744 21.67° C 50% 1018 hPa 0 mm - - -
1777282844 21.11° C 49% 1018 hPa 0 mm - - -
1777281944 21.11° C 51% 1018 hPa 0 mm - - -
1777281044 21.11° C 50% 1018 hPa 0 mm - - -
1777280143 20.56° C 53% 1018 hPa 0 mm - - -
1777279243 20.56° C 52% 1018 hPa 0 mm - - -
1777278343 20.56° C 52% 1018 hPa 0 mm - - -
1777277443 20.56° C 49% 1018 hPa 0 mm - - -
1777276542 20° C 51% 1018 hPa 0 mm - - -
1777275642 19.44° C 56% 1018 hPa 0 mm - - -
1777274742 18.89° C 57% 1018 hPa 0 mm - - -
1777273841 19.44° C 57% 1018 hPa 0 mm - - -
1777272941 18.89° C 57% 1018 hPa 0 mm - - -
1777272041 18.89° C 57% 1018 hPa 0 mm - - -
1777271141 18.89° C 57% 1018 hPa 0 mm - - -
1777270240 18.33° C 58% 1018 hPa 0 mm - - -
1777269340 18.33° C 59% 1017 hPa 0 mm - - -
1777268440 17.78° C 59% 1017 hPa 0 mm - - -
1777267540 17.78° C 62% 1017 hPa 0 mm - - -
1777266639 17.22° C 64% 1018 hPa 0 mm - - -
1777265739 16.67° C 66% 1017 hPa 0 mm - - -
1777264839 16.11° C 67% 1017 hPa 0 mm - - -
1777263939 15.56° C 71% 1017 hPa 0 mm - - -
1777263038 13.89° C 77% 1017 hPa 0 mm - - -
1777262138 13.33° C 80% 1017 hPa 0 mm - - -

* Rain latest hour (hover to see other rain measurements)
** Current wind speed in m/s (hover to see current wind gust speed)